Chrysanthemum — C6XO4 — position and weather

sailwx.info

Track history (hours):
 
Tides and Currents Weather Stations Pressure Air Temp Water Temp Dewpoint Dewpoint Depression Visibility Wind Speed Wind Dir Waves Ship Positions

Chrysanthemum

Last reported at 2014-Nov-13 18:10 UTC. Time now 2014-Nov-27 01:46 UTC.
Position N 01°12' E 103°37'.
Warning: this ship's position is 13 days out of date.

Length 244 m; draft 7.8 m.

Type: Tanker. MMSI: 311015300.

Date/timePositionNaut miles runAvg speedWind from/ knotsBaromVisibWave heightAir tempDewpointWater temp
2014-Nov-13 18:10N 01°12' E 103°37'910.3
2014-Nov-13 17:19N 01°09' E 103°46'811.0
2014-Nov-13 16:33N 01°13' E 103°53'8 6.7
2014-Nov-13 15:20N 01°17' E 104°00'0 0.0
2014-Nov-13 14:23N 01°17' E 104°00'0 0.0
2014-Nov-13 13:17N 01°17' E 104°00'0 0.0
2014-Nov-13 11:11N 01°17' E 104°00'0 0.1
2014-Nov-13 09:32N 01°17' E 104°00'0 0.2
2014-Nov-13 08:29N 01°17' E 103°60'0 0.0
2014-Nov-13 07:23N 01°17' E 103°60'0 0.2
2014-Nov-13 06:29N 01°17' E 103°60'0 0.0
2014-Nov-13 04:17N 01°17' E 103°60'2 2.7
2014-Nov-13 03:34N 01°16' E 103°58'9 9.0
2014-Nov-13 02:33N 01°17' E 104°08'8 7.0
2014-Nov-13 01:28N 01°18' E 104°15'  
Track history (hours):
 
Tides and Currents Weather Stations Pressure Air Temp Water Temp Dewpoint Dewpoint Depression Visibility Wind Speed Wind Dir Waves Ship Positions

Chrysanthemum

Last reported at 2014-Nov-13 18:10 UTC. Time now 2014-Nov-27 01:46 UTC.
Position N 01°12' E 103°37'.
Warning: this ship's position is 13 days out of date.

Length 244 m; draft 7.8 m.

Type: Tanker. MMSI: 311015300.

Date/timePositionNaut miles runAvg speedWind from/ knotsBaromVisibWave heightAir tempDewpointWater temp
2014-Nov-13 18:10N 01°12' E 103°37'910.3
2014-Nov-13 17:19N 01°09' E 103°46'811.0
2014-Nov-13 16:33N 01°13' E 103°53'8 6.7
2014-Nov-13 15:20N 01°17' E 104°00'0 0.0
2014-Nov-13 14:23N 01°17' E 104°00'0 0.0
2014-Nov-13 13:17N 01°17' E 104°00'0 0.0
2014-Nov-13 11:11N 01°17' E 104°00'0 0.1
2014-Nov-13 09:32N 01°17' E 104°00'0 0.2
2014-Nov-13 08:29N 01°17' E 103°60'0 0.0
2014-Nov-13 07:23N 01°17' E 103°60'0 0.2
2014-Nov-13 06:29N 01°17' E 103°60'0 0.0
2014-Nov-13 04:17N 01°17' E 103°60'2 2.7
2014-Nov-13 03:34N 01°16' E 103°58'9 9.0
2014-Nov-13 02:33N 01°17' E 104°08'8 7.0
2014-Nov-13 01:28N 01°18' E 104°15'  

Dump ship's entire track history